Date,TemperatureHighF,TemperatureAvgF,TemperatureLowF,DewpointHighF,DewpointAvgF,DewpointLowF,HumidityHigh,HumidityAvg,HumidityLow,PressureMaxIn,PressureMinIn,WindSpeedMaxMPH,WindSpeedAvgMPH,GustSpeedMaxMPH,PrecipitationSumIn
2013-1-1,46,37,30,18,14,10,61,40,23,0.00,40.00,6,2,13,0.00
2013-1-2,50,41,32,15,13,11,47,33,22,0.00,40.00,7,3,15,0.00
2013-1-3,51,42,33,11,7,1,35,24,13,0.00,40.00,7,4,19,0.00
2013-1-4,49,38,28,11,9,7,46,30,18,0.00,40.00,3,2,6,0.00
2013-1-5,50,39,27,16,11,8,52,32,18,0.00,40.00,4,1,7,0.00
2013-1-6,54,42,35,23,17,11,49,37,19,0.00,40.00,4,1,8,0.00
2013-1-7,58,47,35,24,16,9,63,32,14,0.00,40.00,7,3,13,0.00
2013-1-8,63,51,40,30,23,13,47,34,25,0.00,40.00,6,2,12,0.00
2013-1-9,60,50,39,32,29,26,68,45,28,0.00,40.00,4,2,8,0.00
2013-1-10,55,49,39,34,21,3,50,33,18,0.00,40.00,13,6,26,0.00
2013-1-11,45,38,34,17,9,5,43,30,19,0.00,40.00,9,4,18,0.00
2013-1-12,40,34,29,12,6,1,44,31,20,0.00,40.00,7,3,14,0.00
2013-1-13,37,30,23,7,3,-4,47,31,22,0.00,40.00,6,2,15,0.00
2013-1-14,36,29,23,3,-2,-6,34,26,16,0.00,40.00,7,4,18,0.00
2013-1-15,44,33,22,13,6,0,43,31,24,0.00,40.00,5,3,12,0.00
2013-1-16,54,43,31,20,18,14,50,37,25,0.00,40.00,6,3,14,0.00
2013-1-17,59,47,38,16,13,11,34,25,15,0.00,40.00,7,3,12,0.00
2013-1-18,58,45,32,17,14,13,52,30,17,0.00,40.00,5,2,10,0.00
2013-1-19,60,47,32,16,13,9,49,27,14,0.00,40.00,4,2,8,0.00
2013-1-20,61,47,34,14,12,10,40,25,13,0.00,40.00,5,2,10,0.00
2013-1-21,63,50,36,13,10,7,34,21,11,0.00,40.00,5,2,10,0.00
2013-1-22,63,50,37,18,14,10,38,24,14,0.00,40.00,4,2,7,0.00
2013-1-23,62,51,41,22,17,14,36,27,17,0.00,40.00,4,2,8,0.00
2013-1-24,58,53,50,44,35,20,71,52,25,0.00,40.00,4,1,9,0.00
2013-1-25,62,54,47,49,43,40,86,65,49,0.00,40.00,3,1,8,0.00
2013-1-26,57,53,51,52,50,49,96,90,80,0.00,40.00,4,2,8,0.00
2013-1-27,64,55,46,50,39,28,93,58,37,0.00,40.00,14,5,24,0.00
2013-1-28,49,45,39,30,19,10,54,37,21,0.00,40.00,10,5,18,0.00
2013-1-29,56,47,39,30,24,17,56,40,30,0.00,40.00,6,3,11,0.00
2013-1-30,60,49,39,32,28,25,62,46,29,0.00,40.00,3,2,6,0.00
2013-1-31,63,54,39,34,31,28,75,45,27,0.00,40.00,4,2,10,0.00